Cruise inventory

RRS Frederick Russell FR13/87

Cruise summary report

Cruise Info. 
Ship name (ship code)RRS Frederick Russell (74GG)
Cruise identifierFR13/87
Cruise period1987-03-19 — 1987-03-27
StatusCompleted
Port of departurePlymouth, United Kingdom
ObjectivesPhysical oceanography. Lorn/Clyde Pelagic Study,(UCNW)
Chief scientistJack B L Matthews (Scottish Marine Biological Association)
Cruise reportRRS Frederick Russell FR13/87 cruise report frederick_russell13_87.pdf — access key 'C' (0.73 MB) 
Ocean/sea areas 
GeneralInner Seas off the West Coast of Scotland
SpecificClyde Approaches/ Minches/W. Scotland
Track chartsRRS Frederick Russell FR13/87 cruise track — trk3314.html
Measurements 
Physical oceanography 
Water bottle stationsQuantity: number of stations = 115
CTD stationsQuantity: number of stations = 115
Optics (eg underwater light levels)Quantity: number of stations = 49
Description: floppy disc
Chemical oceanography 
PhosphateQuantity: number of stations = 111
NitrateQuantity: number of stations = 111
SilicateQuantity: number of stations = 111
RadioactivityQuantity: number of samples = 2
Description: Cs
Biology and fisheries 
Primary productivityQuantity: number of stations = 3
Phytoplankton pigs (eg chlorophyll, fluorescence)Quantity: number of stations = 117
PhytoplanktonQuantity: number of stations = 27
ZooplanktonQuantity: number of stations = 39
Description: survey:distribution,biomass determination,population,energy transfers
Data held at BODC 
Series/Profiles 
113  CTD/STD cast
Vertical spatial coordinates
Salinity of the water column
Temperature of the water column
Vertical spatial coordinates
Salinity of the water column
Temperature of the water column

BODC idDate/TimeLocationDoc.
3835151987-03-23 02:09 55° 7' 59" N  5° 13' 0" W  View metadata report for BODC series reference number 383515
3835271987-03-23 02:52 55° 6' 0" N  5° 7' 59" W  View metadata report for BODC series reference number 383527
3835391987-03-23 03:29 55° 4' 59" N  5° 4' 0" W  View metadata report for BODC series reference number 383539
3835401987-03-23 05:02 55° 4' 0" N  5° 16' 0" W  View metadata report for BODC series reference number 383540
3835521987-03-23 07:27 54° 57' 0" N  5° 13' 59" W  View metadata report for BODC series reference number 383552
3835641987-03-23 09:28 54° 47' 59" N  5° 4' 59" W  View metadata report for BODC series reference number 383564
3835761987-03-23 10:20 54° 46' 0" N  5° 10' 0" W  View metadata report for BODC series reference number 383576
3835881987-03-23 11:19 54° 43' 59" N  5° 15' 0" W  View metadata report for BODC series reference number 383588
3836071987-03-23 13:20 54° 43' 0" N  5° 19' 59" W  View metadata report for BODC series reference number 383607
3836191987-03-23 17:01 55° 1' 5" N  5° 20' 59" W  View metadata report for BODC series reference number 383619
3836201987-03-23 18:10 55° 4' 59" N  5° 26' 5" W  View metadata report for BODC series reference number 383620
3836321987-03-23 19:41 55° 8' 59" N  5° 31' 59" W  View metadata report for BODC series reference number 383632
3836441987-03-23 20:53 55° 16' 0" N  5° 37' 0" W  View metadata report for BODC series reference number 383644
3836561987-03-23 22:02 55° 19' 59" N  5° 28' 0" W  View metadata report for BODC series reference number 383656
3836681987-03-23 23:16 55° 22' 0" N  5° 27' 0" W  View metadata report for BODC series reference number 383668
3836811987-03-24 00:03 55° 27' 0" N  5° 28' 0" W  View metadata report for BODC series reference number 383681
3836931987-03-24 02:57 55° 13' 0" N  5° 37' 59" W  View metadata report for BODC series reference number 383693
3837001987-03-24 04:09 55° 15' 0" N  5° 46' 59" W  View metadata report for BODC series reference number 383700
3837121987-03-24 05:52 55° 12' 54" N  5° 51' 54" W  View metadata report for BODC series reference number 383712
3837241987-03-24 06:46 55° 11' 6" N  5° 55' 59" W  View metadata report for BODC series reference number 383724
3837361987-03-24 11:28 55° 13' 59" N  6° 45' 0" W  View metadata report for BODC series reference number 383736
3837481987-03-24 15:41 55° 19' 0" N  6° 40' 59" W  View metadata report for BODC series reference number 383748
3837611987-03-24 16:41 55° 23' 5" N  6° 36' 54" W  View metadata report for BODC series reference number 383761
3837731987-03-24 18:22 55° 28' 0" N  6° 32' 59" W  View metadata report for BODC series reference number 383773
3837851987-03-24 19:29 55° 32' 59" N  6° 30' 0" W  View metadata report for BODC series reference number 383785
3837971987-03-24 20:58 55° 37' 0" N  6° 25' 59" W  View metadata report for BODC series reference number 383797
3838041987-03-24 21:52 55° 42' 0" N  6° 22' 30" W  View metadata report for BODC series reference number 383804
3838161987-03-24 23:25 55° 46' 0" N  6° 37' 0" W  View metadata report for BODC series reference number 383816
3838281987-03-25 01:13 55° 46' 0" N  6° 46' 0" W  View metadata report for BODC series reference number 383828
3838411987-03-25 02:12 55° 46' 0" N  6° 55' 0" W  View metadata report for BODC series reference number 383841
3838531987-03-25 03:07 55° 46' 0" N  7° 4' 0" W  View metadata report for BODC series reference number 383853
3838651987-03-25 05:05 55° 46' 5" N  7° 16' 0" W  View metadata report for BODC series reference number 383865
3838771987-03-25 06:55 55° 46' 0" N  7° 28' 59" W  View metadata report for BODC series reference number 383877
3838891987-03-25 08:25 55° 46' 0" N  7° 40' 54" W  View metadata report for BODC series reference number 383889
3838901987-03-25 10:24 55° 46' 0" N  8° 0' 0" W  View metadata report for BODC series reference number 383890
3839081987-03-25 15:23 56° 10' 0" N  8° 45' 0" W  View metadata report for BODC series reference number 383908
3839211987-03-25 18:10 56° 10' 0" N  8° 30' 0" W  View metadata report for BODC series reference number 383921
3839331987-03-25 20:04 56° 10' 0" N  8° 45' 0" W  View metadata report for BODC series reference number 383933
3839451987-03-25 22:17 56° 10' 0" N  8° 15' 0" W  View metadata report for BODC series reference number 383945
3839571987-03-25 23:57 56° 10' 0" N  8° 0' 0" W  View metadata report for BODC series reference number 383957
3839691987-03-26 02:24 56° 10' 0" N  7° 30' 0" W  View metadata report for BODC series reference number 383969
3839701987-03-26 03:53 56° 10' 0" N  7° 15' 0" W  View metadata report for BODC series reference number 383970
3839821987-03-26 05:14 56° 9' 47" N  7° 0' 0" W  View metadata report for BODC series reference number 383982
3839941987-03-26 06:42 56° 10' 0" N  6° 45' 0" W  View metadata report for BODC series reference number 383994
3840081987-03-26 08:16 56° 10' 0" N  6° 30' 0" W  View metadata report for BODC series reference number 384008
3840211987-03-26 10:12 56° 8' 59" N  6° 19' 59" W  View metadata report for BODC series reference number 384021
3840331987-03-26 12:25 56° 12' 0" N  6° 10' 0" W  View metadata report for BODC series reference number 384033
3829421987-03-19 17:47 55° 26' 48" N  5° 28' 29" W  View metadata report for BODC series reference number 382942
3829541987-03-19 21:38 55° 37' 5" N  5° 22' 54" W  View metadata report for BODC series reference number 382954
3829661987-03-19 22:34 55° 37' 5" N  5° 27' 11" W  View metadata report for BODC series reference number 382966
3829781987-03-19 23:38 55° 34' 0" N  5° 25' 0" W  View metadata report for BODC series reference number 382978
3829911987-03-20 00:45 55° 38' 59" N  5° 25' 54" W  View metadata report for BODC series reference number 382991
3830051987-03-20 01:58 55° 42' 11" N  5° 20' 59" W  View metadata report for BODC series reference number 383005
3830171987-03-20 04:23 55° 44' 5" N  5° 21' 54" W  View metadata report for BODC series reference number 383017
3830291987-03-20 05:23 55° 45' 6" N  5° 15' 47" W  View metadata report for BODC series reference number 383029
3830301987-03-20 06:27 55° 46' 41" N  5° 12' 53" W  View metadata report for BODC series reference number 383030
3830421987-03-20 08:51 55° 50' 6" N  5° 10' 36" W  View metadata report for BODC series reference number 383042
3830541987-03-20 11:03 55° 49' 59" N  5° 17' 12" W  View metadata report for BODC series reference number 383054
3830661987-03-20 12:18 55° 53' 59" N  5° 22' 59" W  View metadata report for BODC series reference number 383066
3830781987-03-20 15:24 55° 58' 0" N  5° 22' 59" W  View metadata report for BODC series reference number 383078
3830911987-03-20 18:19 55° 42' 0" N  5° 8' 53" W  View metadata report for BODC series reference number 383091
3831091987-03-20 19:20 55° 42' 0" N  5° 4' 0" W  View metadata report for BODC series reference number 383109
3831101987-03-20 21:03 55° 49' 59" N  4° 55' 0" W  View metadata report for BODC series reference number 383110
3831221987-03-20 22:38 55° 49' 59" N  4° 58' 5" W  View metadata report for BODC series reference number 383122
3831341987-03-20 23:49 55° 53' 30" N  5° 4' 0" W  View metadata report for BODC series reference number 383134
3831461987-03-21 02:53 55° 40' 47" N  5° 1' 11" W  View metadata report for BODC series reference number 383146
3831581987-03-21 04:14 55° 39' 24" N  5° 1' 23" W  View metadata report for BODC series reference number 383158
3831711987-03-21 04:57 55° 38' 53" N  5° 1' 23" W  View metadata report for BODC series reference number 383171
3831831987-03-21 06:24 55° 38' 24" N  5° 1' 23" W  View metadata report for BODC series reference number 383183
3831951987-03-21 07:33 55° 39' 6" N  4° 55' 0" W  View metadata report for BODC series reference number 383195
3832021987-03-21 08:47 55° 37' 59" N  5° 0' 0" W  View metadata report for BODC series reference number 383202
3832141987-03-21 09:52 55° 36' 0" N  5° 4' 59" W  View metadata report for BODC series reference number 383214
3832261987-03-21 11:12 55° 36' 0" N  4° 58' 41" W  View metadata report for BODC series reference number 383226
3832381987-03-21 13:57 55° 31' 5" N  4° 52' 5" W  View metadata report for BODC series reference number 383238
3832511987-03-21 15:11 55° 28' 0" N  4° 45' 6" W  View metadata report for BODC series reference number 383251
3832631987-03-21 16:56 55° 28' 0" N  4° 49' 59" W  View metadata report for BODC series reference number 383263
3832751987-03-21 18:08 55° 28' 59" N  4° 55' 0" W  View metadata report for BODC series reference number 383275
3832871987-03-21 19:05 55° 28' 59" N  5° 1' 0" W  View metadata report for BODC series reference number 383287
3832991987-03-21 21:33 55° 33' 53" N  4° 58' 59" W  View metadata report for BODC series reference number 383299
3833061987-03-21 23:42 55° 22' 59" N  5° 4' 59" W  View metadata report for BODC series reference number 383306
3833181987-03-22 00:42 55° 22' 18" N  4° 58' 5" W  View metadata report for BODC series reference number 383318
3833311987-03-22 01:46 55° 21' 54" N  4° 50' 59" W  View metadata report for BODC series reference number 383331
3833431987-03-22 02:49 55° 16' 0" N  4° 56' 12" W  View metadata report for BODC series reference number 383343
3833551987-03-22 07:28 55° 19' 0" N  5° 4' 59" W  View metadata report for BODC series reference number 383355
3833671987-03-22 08:20 55° 19' 59" N  5° 7' 59" W  View metadata report for BODC series reference number 383367
3833791987-03-22 10:12 55° 22' 0" N  5° 12' 0" W  View metadata report for BODC series reference number 383379
3833801987-03-22 11:31 55° 23' 59" N  5° 19' 59" W  View metadata report for BODC series reference number 383380
3833921987-03-22 12:55 55° 19' 0" N  5° 19' 59" W  View metadata report for BODC series reference number 383392
3834111987-03-22 14:48 55° 16' 0" N  5° 13' 0" W  View metadata report for BODC series reference number 383411
3834231987-03-22 15:39 55° 13' 59" N  5° 12' 0" W  View metadata report for BODC series reference number 383423
3834351987-03-22 16:39 55° 13' 59" N  5° 2' 59" W  View metadata report for BODC series reference number 383435
3834471987-03-22 17:32 55° 13' 0" N  4° 58' 0" W  View metadata report for BODC series reference number 383447
3834591987-03-22 18:58 55° 8' 59" N  5° 2' 59" W  View metadata report for BODC series reference number 383459
3834601987-03-22 19:50 55° 10' 59" N  5° 10' 5" W  View metadata report for BODC series reference number 383460
3834721987-03-22 21:14 55° 13' 0" N  5° 15' 0" W  View metadata report for BODC series reference number 383472
3834841987-03-22 22:11 55° 16' 0" N  5° 24' 0" W  View metadata report for BODC series reference number 383484
3834961987-03-22 22:57 55° 12' 0" N  5° 27' 0" W  View metadata report for BODC series reference number 383496
3835031987-03-23 00:28 55° 8' 59" N  5° 19' 0" W  View metadata report for BODC series reference number 383503
3840451987-03-26 13:37 56° 13' 59" N  6° 1' 59" W  View metadata report for BODC series reference number 384045
3840571987-03-26 15:28 56° 10' 59" N  5° 58' 59" W  View metadata report for BODC series reference number 384057
3840691987-03-26 16:38 56° 7' 48" N  5° 55' 47" W  View metadata report for BODC series reference number 384069
3840701987-03-26 18:15 56° 4' 59" N  5° 52' 59" W  View metadata report for BODC series reference number 384070
3840821987-03-26 19:52 56° 14' 5" N  6° 1' 48" W  View metadata report for BODC series reference number 384082
3840941987-03-26 20:39 56° 13' 18" N  6° 4' 59" W  View metadata report for BODC series reference number 384094
3841011987-03-26 21:54 56° 16' 59" N  5° 49' 59" W  View metadata report for BODC series reference number 384101
3841131987-03-26 23:24 56° 19' 59" N  5° 40' 59" W  View metadata report for BODC series reference number 384113
3841251987-03-27 01:08 56° 28' 0" N  5° 30' 0" W  View metadata report for BODC series reference number 384125
3841371987-03-27 03:12 56° 29' 35" N  5° 38' 5" W  View metadata report for BODC series reference number 384137
3841491987-03-27 05:42 56° 37' 23" N  5° 24' 0" W  View metadata report for BODC series reference number 384149
3841501987-03-27 08:02 56° 31' 18" N  5° 46' 30" W  View metadata report for BODC series reference number 384150
3841621987-03-27 10:10 56° 35' 24" N  5° 59' 24" W  View metadata report for BODC series reference number 384162
3841741987-03-27 11:26 56° 40' 0" N  6° 7' 0" W  View metadata report for BODC series reference number 384174
3841861987-03-27 13:15 56° 40' 59" N  6° 16' 59" W  View metadata report for BODC series reference number 384186